Hamilton, MT

11:30 PM MDT on September 14, 2014 (GMT -0600)
MesoWest DALY CREEK MT US SNOTEL | Change Station
CLOSE
Current Station
Personal Weather Station
Location: Grantsdale, MT
Elevation: 5779 ft
Nearby Weather Stations

Elev 5779 ft 46.18 °N, 113.85 °W | Updated 60 days ago

Clear
Clear
48 °F
Feels Like 48 °F
N
2
Wind Variable Wind from SSE
Gusts 2 mph

Today
High -- | Low -- °F
--% Chance of Precip.
Yesterday
High -- | Low -- °F
Precip. -- in
7:12 AM 7:48 PM
Waning Gibbous, 59% visible
Pressure 30.07 in
Visibility 10.0 miles
Clouds Clear
Dew Point 37 °F
Humidity 65%
Rainfall -9999.00 in
Snow Depth 0 in , 0 in , 0 in
UV 0 out of 12
Pollen 6.00 out of 12
Air Quality Not available.
Flu Activity Not available.
METAR KMSO 150453Z AUTO 00000KT 10SM CLR 12/00 A3007 RMK AO2 SLP182 T01220000

More Conditions Fewer Conditions

Pressure 30.07 in
Visibility 10.0 miles
Clouds Clear
Dew Point 37 °F
Humidity 65%
Rainfall -9999.00 in
Snow Depth 0 in , 0 in , 0 in
UV 0 out of 12
Pollen 6.00 out of 12
Air Quality Not available.
Flu Activity Not available.
METAR KMSO 150453Z AUTO 00000KT 10SM CLR 12/00 A3007 RMK AO2 SLP182 T01220000

More Conditions Fewer Conditions

10-Day Weather Forecast

Almanac

Astronomy

Sep. 14, 2014 Rise Set
Actual Time 7:12 AM MDT 7:48 PM MDT
Civil Twilight 6:42 AM MDT 8:18 PM MDT
Nautical Twilight 6:06 AM MDT 8:54 PM MDT
Astronomical Twilight 5:28 AM MDT 9:31 PM MDT
Moon 11:25 PM MDT (9/14) 1:41 PM MDT (9/14)
Length of Visible Light 13h 36m
Length of Day
12h 36m
Tomorrow will be 3m 14s shorter.
Waning Gibbous, 59% of the Moon is Illuminated
Sep 15
Waning Gibbous
Sep 15
Last Quarter
Sep 24
New
Oct 1
First Quarter
Oct 8
Full

Yesterday's Extremes

State Highs State Lows

Community

WunderPhotos

Upload Photos

1,753,415 photos uploaded!

Nearby

Snow Depth

Station Depth Elevation
Kraft Creek 0 in 4750 ft
Mule Creek 0 in 8300 ft
Stahl Peak 0 in 6030 ft
Black Pine 1 in 7210 ft
Crystal Lake 1 in 6050 ft

Earthquake Activity

City Distance Mag. Time & Date
No recent earthquake activity has been reported nearby.
Minimum magnitude displayed is 2.5.

Coastal Water Temperatures

Place Temperature
No Stations Reporting

Nearby Weather Stations